AirNav   Everest Fuels
 
 1474 users online  

6D3 Maddock Municipal Airport
Maddock, North Dakota, USA

GOING TO MADDOCK?


FAA INFORMATION EFFECTIVE 16 JULY 2020

Location

FAA Identifier: 6D3
Lat/Long: 47-58-48.9450N 099-31-37.0550W
47-58.815750N 099-31.617583W
47.9802625,-99.5269597
(estimated)
Elevation: 1600 ft. / 488 m (estimated)
Variation: 09E (1985)
From city: 1 mile N of MADDOCK, ND
Time zone: UTC -5 (UTC -6 during Standard Time)
Zip code: 58348

Airport Operations

Airport use: Open to the public
Activation date: 01/1971
Control tower: no
ARTCC: MINNEAPOLIS CENTER
FSS: GRAND FORKS FLIGHT SERVICE STATION
NOTAMs facility: GFK (NOTAM-D service available)
Attendance: ON CALL
FOR ATTENDANT CALL (701) 739-4875.
Wind indicator: yes
Segmented circle: no
Lights: SS-SR

Airport Communications

CTAF: 122.9
WX AWOS-3 at 5H4 (20 nm SW): 118.825 (701-324-2058)

Nearby radio navigation aids

VOR radial/distance  VOR name  Freq  Var
DVLr245/25.9DEVILS LAKE VOR/DME111.0007E

Airport Services

Parking: hangars
Airframe service: NONE
Powerplant service: NONE
Bottled oxygen: NONE
Bulk oxygen: NONE

Runway Information

Runway 12/30

Dimensions: 3000 x 50 ft. / 914 x 15 m
Surface: concrete, in good condition
Runway edge lights: non-standard
NSTD SOLAR LGTS.
RUNWAY 12  RUNWAY 30
Latitude: 47-58.973667N47-58.657833N
Longitude: 099-31.899833W099-31.335333W
Elevation: 1594.5 ft.1595.7 ft.
Traffic pattern: leftleft
Runway heading: 121 magnetic, 130 true301 magnetic, 310 true
Markings: basic, in good conditionbasic, in good condition
Obstructions: 19 ft. road, 600 ft. from runway, 50 ft. right of centerline, 20:1 slope to clearnone

Airport Ownership and Management from official FAA records

Ownership: Publicly-owned
Owner: MADDOCK MUNICIPAL AIRPORT AUTHORITY
4316 HWY 30
MADDOCK, ND 58348
Phone 701-739-8435
JASON LEE CHAIRPERSON OF ARPT AUTH.
Manager: RICHARD SLATER
P.O. BOX 64
MADDOCK, ND 58348
Phone 701-739-4875
ADDITIONAL PHONE NUMBER FOR MANAGER: 701-438-2444

Airport Operational Statistics

Aircraft based on the field: 13
Single engine airplanes: 11
Multi engine airplanes: 1
Helicopters: 1
    
Aircraft operations: avg 125/week *
92% local general aviation
8% transient general aviation
<1% military
<1% air taxi
* for 12-month period ending 15 April 2019

Additional Remarks

IREG SNOW REMOVAL; CFM ARPT COND WITH MGR DURING WINTER MONTHS.
MIDFIELD E/W TURF TWY OPEN TO WEST SIDE APN AND HNGR. UNEVEN SFC.
DEER & BIRDS ON OR INVOF ARPT.
FOR CD CTC MINNEAPOLIS ARTCC AT 651-463-5588.

Instrument Procedures

There are no published instrument procedures at 6D3.

Some nearby airports with instrument procedures:

5H4 - Harvey Municipal Airport (20 nm SW)
KDVL - Devils Lake Regional Airport (26 nm E)
KRUG - Rugby Municipal Airport (32 nm NW)
9D7 - Cando Municipal Airport (32 nm N)
46D - Carrington Municipal Airport (35 nm SE)
 
Loc | Ops | Rwys | IFR | FBO | Links
Com | Nav | Svcs | Stats | Notes

Bismarck Aero Center
AirBoss

 
Area around 6D3 (Maddock Municipal Airport)
 
Road maps at: MapQuest Bing Google
 
Aerial photo
WARNING: Photo may not be current or correct
Aerial photo of 6D3 (Maddock Municipal Airport)
Do you have a better or more recent aerial photo of Maddock Municipal Airport that you would like to share? If so, please send us your photo.

 
Sectional chart

 
Airport distance calculator
Flying to Maddock Municipal Airport? Find the distance to fly.

From to 6D3

Sunrise and sunset
Times for 03-Aug-2020
 Local
(UTC-5)
 Zulu
(UTC)
Morning civil twilight05:4310:43
Sunrise06:1911:19
Sunset21:0902:09
Evening civil twilight21:4502:45

Current date and time
Zulu (UTC)  03-Aug-2020 15:12:25
Local (UTC-5)  03-Aug-2020 10:12:25
 
METAR
K5H4 
20nm SW 
031455Z AUTO 11004KT 10SM CLR 19/13 A3025 RMK AO2
KDVL 
26nm E 
031456Z AUTO 10004KT 10SM CLR 20/11 A3024 RMK AO2 SLP818 T02000111 51001
KRUG 
32nm NW 
031455Z AUTO 15004KT 10SM CLR 19/13 A3023 RMK AO2
K9D7 
32nm N 
031455Z AUTO VRB04KT 10SM CLR 20/14 A3026 RMK AO2
K46D 
35nm SE 
031455Z AUTO 00000KT 10SM CLR 20/10 A3026 RMK AO2
TAF
KDVL 
26nm E 
031122Z 0312/0412 VRB03KT P6SM SKC FM031700 12006KT P6SM SCT050 FM040100 14006KT P6SM SKC
NOTAMs
Click for the latest NOTAMs
NOTAMs are issued by the DoD/FAA and will open in a separate window not controlled by AirNav.

 

 
 

Would you like to see your business listed on this page?

 If your business provides an interesting product or service to pilots, flight crews, aircraft, or users of the Maddock Municipal Airport, you should consider listing it here.  To start the listing process, click on the button below
 
Add a business
 

Other Pages about Maddock Municipal Airport

Update a link
 
Copyright © AirNav, LLC. All rights reserved. Privacy Policy  Contact